createdAt,value
2023-08-15T00:00:02.806Z,100.00
2023-08-15T00:02:32.119Z,100.00
2023-08-15T00:05:00.220Z,100.00
2023-08-15T00:07:28.125Z,100.00
2023-08-15T00:09:56.205Z,100.00
2023-08-15T00:12:24.162Z,100.00
2023-08-15T00:14:52.137Z,100.00
2023-08-15T00:17:20.170Z,100.00
2023-08-15T00:19:50.022Z,100.00
2023-08-15T00:22:18.773Z,100.00
2023-08-15T00:24:46.784Z,100.00
2023-08-15T00:27:14.648Z,100.00
2023-08-15T00:29:42.498Z,100.00
2023-08-15T00:32:10.452Z,100.00
2023-08-15T00:34:38.373Z,100.00
2023-08-15T00:37:07.696Z,100.00
2023-08-15T00:39:35.608Z,100.00
2023-08-15T00:42:03.562Z,100.00
2023-08-15T00:44:31.493Z,100.00
2023-08-15T00:46:59.691Z,100.00
2023-08-15T00:49:27.704Z,100.00
2023-08-15T00:51:55.742Z,100.00
2023-08-15T00:54:25.136Z,100.00
2023-08-15T00:56:53.188Z,100.00
2023-08-15T00:59:21.939Z,100.00
2023-08-15T01:01:50.492Z,100.00
2023-08-15T01:04:18.927Z,100.00
2023-08-15T01:06:46.875Z,100.00
2023-08-15T01:09:14.777Z,100.00
2023-08-15T01:11:53.290Z,100.00
2023-08-15T01:14:24.338Z,100.00
2023-08-15T01:16:54.489Z,100.00
2023-08-15T01:19:32.139Z,100.00
2023-08-15T01:22:01.928Z,100.00
2023-08-15T01:24:32.183Z,100.00
2023-08-15T01:27:00.181Z,100.00
2023-08-15T01:29:28.161Z,100.00
2023-08-15T01:32:03.649Z,100.00
2023-08-15T01:34:36.232Z,100.00
2023-08-15T01:37:09.355Z,100.00
2023-08-15T01:39:40.757Z,100.00
2023-08-15T01:42:10.265Z,100.00
2023-08-15T01:44:39.242Z,100.00
2023-08-15T01:47:07.414Z,100.00
2023-08-15T01:49:35.358Z,100.00
2023-08-15T01:52:03.466Z,100.00
2023-08-15T01:54:31.812Z,100.00
2023-08-15T01:57:01.078Z,100.00
2023-08-15T01:59:29.110Z,100.00
2023-08-15T02:01:57.090Z,100.00
2023-08-15T02:04:25.125Z,100.00
2023-08-15T02:06:53.120Z,100.00
2023-08-15T02:09:21.070Z,100.00
2023-08-15T02:11:49.039Z,100.00
2023-08-15T02:14:18.393Z,100.00
2023-08-15T02:16:46.398Z,100.00
2023-08-15T02:19:17.300Z,100.00
2023-08-15T02:21:45.269Z,100.00
2023-08-15T02:24:13.163Z,100.00
2023-08-15T02:26:41.122Z,100.00
2023-08-15T02:29:09.083Z,100.00
2023-08-15T02:31:45.268Z,100.00
2023-08-15T02:34:13.122Z,100.00
2023-08-15T02:36:41.056Z,100.00
2023-08-15T02:39:09.229Z,100.00
2023-08-15T02:41:37.196Z,100.00
2023-08-15T02:44:05.395Z,100.00
2023-08-15T02:46:33.388Z,100.00
2023-08-15T02:49:02.688Z,100.00
2023-08-15T02:51:30.686Z,100.00
2023-08-15T02:53:58.617Z,100.00
2023-08-15T02:56:26.684Z,100.00
2023-08-15T02:58:55.393Z,100.00
2023-08-15T03:01:24.502Z,100.00
2023-08-15T03:03:52.449Z,100.00
2023-08-15T03:06:21.717Z,100.00
2023-08-15T03:08:49.680Z,100.00
2023-08-15T03:11:17.735Z,100.00
2023-08-15T03:13:45.798Z,100.00
2023-08-15T03:16:14.092Z,100.00
2023-08-15T03:18:42.050Z,100.00
2023-08-15T03:21:10.380Z,100.00
2023-08-15T03:23:40.147Z,100.00
2023-08-15T03:26:08.597Z,100.00
2023-08-15T03:28:37.457Z,100.00
2023-08-15T03:31:07.061Z,100.00
2023-08-15T03:33:35.460Z,100.00
2023-08-15T03:36:03.880Z,100.00
2023-08-15T03:38:31.797Z,100.00
2023-08-15T03:41:04.994Z,100.00
2023-08-15T03:43:32.991Z,100.00
2023-08-15T03:46:02.921Z,100.00
2023-08-15T03:48:32.173Z,100.00
2023-08-15T03:51:01.330Z,100.00
2023-08-15T03:53:29.476Z,100.00
2023-08-15T03:55:57.683Z,100.00
2023-08-15T03:58:26.927Z,100.00
2023-08-15T04:00:54.839Z,100.00
2023-08-15T04:03:22.773Z,100.00
2023-08-15T04:05:51.860Z,100.00
2023-08-15T04:08:19.892Z,100.00
2023-08-15T04:10:48.205Z,100.00
2023-08-15T04:13:16.800Z,100.00
2023-08-15T04:15:46.162Z,100.00
2023-08-15T04:18:14.293Z,100.00
2023-08-15T04:20:43.709Z,100.00
2023-08-15T04:23:12.383Z,100.00
2023-08-15T04:25:41.530Z,100.00
2023-08-15T04:28:09.560Z,100.00
2023-08-15T04:30:37.714Z,100.00
2023-08-15T04:33:07.368Z,100.00
2023-08-15T04:35:35.364Z,100.00
2023-08-15T04:38:03.338Z,100.00
2023-08-15T04:40:33.159Z,100.00
2023-08-15T04:43:01.140Z,100.00
2023-08-15T04:45:29.449Z,100.00
2023-08-15T04:47:57.454Z,100.00
2023-08-15T04:50:27.050Z,100.00
2023-08-15T04:52:55.155Z,100.00
2023-08-15T04:55:23.334Z,100.00
2023-08-15T04:57:51.222Z,100.00
2023-08-15T05:00:20.606Z,100.00
2023-08-15T05:02:49.059Z,100.00
2023-08-15T05:05:17.530Z,100.00
2023-08-15T05:07:46.954Z,100.00
2023-08-15T05:10:15.016Z,100.00
2023-08-15T05:12:42.896Z,100.00
2023-08-15T05:15:11.166Z,100.00
2023-08-15T05:17:39.188Z,100.00
2023-08-15T05:20:09.014Z,100.00
2023-08-15T05:22:36.990Z,100.00
2023-08-15T05:25:06.950Z,100.00
2023-08-15T05:27:34.926Z,100.00
2023-08-15T05:30:02.947Z,100.00
2023-08-15T05:32:31.005Z,100.00
2023-08-15T05:34:58.970Z,100.00
2023-08-15T05:37:26.935Z,100.00
2023-08-15T05:39:54.869Z,100.00
2023-08-15T05:42:24.408Z,100.00
2023-08-15T05:44:52.302Z,100.00
2023-08-15T05:47:22.017Z,100.00
2023-08-15T05:49:50.224Z,100.00
2023-08-15T05:52:18.122Z,100.00
2023-08-15T05:54:46.358Z,100.00
2023-08-15T05:57:14.354Z,100.00
2023-08-15T05:59:43.792Z,100.00
2023-08-15T06:02:12.642Z,100.00
2023-08-15T06:04:40.873Z,100.00
2023-08-15T06:07:08.874Z,100.00
2023-08-15T06:09:37.230Z,100.00
2023-08-15T06:12:05.942Z,100.00
2023-08-15T06:14:33.984Z,100.00
2023-08-15T06:17:03.526Z,100.00
2023-08-15T06:19:31.480Z,100.00
2023-08-15T06:21:59.506Z,100.00
2023-08-15T06:24:27.605Z,100.00
2023-08-15T06:26:55.456Z,100.00
2023-08-15T06:29:23.588Z,100.00
2023-08-15T06:31:51.669Z,100.00
2023-08-15T06:34:20.936Z,100.00
2023-08-15T06:36:48.859Z,100.00
2023-08-15T06:39:16.828Z,100.00
2023-08-15T06:41:44.796Z,100.00
2023-08-15T06:44:12.714Z,100.00
2023-08-15T06:46:40.658Z,100.00
2023-08-15T06:49:08.635Z,100.00
2023-08-15T06:51:38.048Z,100.00
2023-08-15T06:54:06.541Z,100.00
2023-08-15T06:56:34.472Z,100.00
2023-08-15T06:59:02.418Z,100.00
2023-08-15T07:01:30.814Z,100.00
2023-08-15T07:03:58.994Z,100.00
2023-08-15T07:06:26.949Z,100.00
2023-08-15T07:08:56.985Z,100.00
2023-08-15T07:11:25.412Z,100.00
2023-08-15T07:13:53.360Z,100.00
2023-08-15T07:16:23.008Z,100.00
2023-08-15T07:21:24.360Z,100.00
2023-08-15T07:23:52.587Z,100.00
2023-08-15T07:26:21.949Z,100.00
2023-08-15T07:28:49.862Z,100.00
2023-08-15T07:31:17.974Z,100.00
2023-08-15T07:33:46.137Z,100.00
2023-08-15T07:36:14.115Z,100.00
2023-08-15T07:38:41.987Z,100.00
2023-08-15T07:41:09.975Z,100.00
2023-08-15T07:43:39.383Z,100.00
2023-08-15T07:46:07.339Z,100.00
2023-08-15T07:48:35.403Z,100.00
2023-08-15T07:51:03.368Z,100.00
2023-08-15T07:53:31.425Z,100.00
2023-08-15T07:55:59.574Z,100.00
2023-08-15T07:58:27.555Z,100.00
2023-08-15T08:00:57.057Z,100.00
2023-08-15T08:03:25.103Z,100.00
2023-08-15T08:05:53.057Z,100.00
2023-08-15T08:08:21.022Z,100.00
2023-08-15T08:10:49.076Z,100.00
2023-08-15T08:13:20.433Z,100.00
2023-08-15T08:15:48.660Z,100.00
2023-08-15T08:18:18.234Z,100.00
2023-08-15T08:20:46.626Z,100.00
2023-08-15T08:23:15.102Z,100.00
2023-08-15T08:25:43.269Z,100.00
2023-08-15T08:28:11.374Z,100.00
2023-08-15T08:30:39.398Z,100.00
2023-08-15T08:33:07.538Z,100.00
2023-08-15T08:35:36.854Z,100.00
2023-08-15T08:38:05.077Z,100.00
2023-08-15T08:40:33.140Z,100.00
2023-08-15T08:43:01.210Z,100.00
2023-08-15T08:45:32.106Z,100.00
2023-08-15T08:48:00.615Z,100.00
2023-08-15T08:50:30.364Z,100.00
2023-08-15T08:52:59.705Z,100.00
2023-08-15T08:55:29.690Z,100.00
2023-08-15T08:58:00.985Z,100.00
2023-08-15T09:00:32.943Z,100.00
2023-08-15T09:03:01.160Z,100.00
2023-08-15T09:05:29.772Z,100.00
2023-08-15T09:08:00.036Z,100.00
2023-08-15T09:10:28.118Z,100.00
2023-08-15T09:13:00.555Z,100.00
2023-08-15T09:15:30.117Z,100.00
2023-08-15T09:18:01.788Z,100.00
2023-08-15T09:20:30.024Z,100.00
2023-08-15T09:23:01.029Z,100.00
2023-08-15T09:25:31.143Z,100.00
2023-08-15T09:27:59.113Z,100.00
2023-08-15T09:30:27.315Z,100.00
2023-08-15T09:32:55.284Z,100.00
2023-08-15T09:35:23.273Z,100.00
2023-08-15T09:37:53.156Z,100.00
2023-08-15T09:40:25.524Z,100.00
2023-08-15T09:42:54.158Z,100.00
2023-08-15T09:45:23.172Z,100.00
2023-08-15T09:47:51.214Z,98.67
2023-08-15T09:50:19.289Z,95.63
2023-08-15T09:52:52.587Z,96.23
2023-08-15T09:55:22.588Z,95.91
2023-08-15T09:57:52.212Z,96.82
2023-08-15T10:00:21.542Z,95.63
2023-08-15T10:02:56.045Z,95.91
2023-08-15T10:05:26.503Z,95.18
2023-08-15T10:07:54.344Z,91.87
2023-08-15T10:10:23.936Z,96.00
2023-08-15T10:12:53.035Z,94.74
2023-08-15T10:15:23.311Z,93.40
2023-08-15T10:17:51.920Z,86.52
2023-08-15T10:20:23.433Z,92.44
2023-08-15T10:22:52.956Z,92.84
2023-08-15T10:25:34.977Z,92.97
2023-08-15T10:28:06.827Z,92.50
2023-08-15T10:30:37.447Z,92.48
2023-08-15T10:33:16.897Z,89.50
2023-08-15T10:35:51.669Z,88.04
2023-08-15T10:38:22.060Z,89.64
2023-08-15T10:40:53.746Z,90.24
2023-08-15T10:43:26.142Z,88.66
2023-08-15T10:45:54.666Z,88.89
2023-08-15T10:48:47.097Z,85.44
2023-08-15T10:51:20.755Z,86.36
2023-08-15T10:53:49.756Z,86.83
2023-08-15T10:56:22.916Z,83.91
2023-08-15T10:58:51.732Z,85.21
2023-08-15T11:01:20.350Z,83.82
2023-08-15T11:03:49.606Z,84.05
2023-08-15T11:06:17.977Z,84.90
2023-08-15T11:08:48.393Z,84.60
2023-08-15T11:11:16.324Z,81.32
2023-08-15T11:13:47.443Z,85.10
2023-08-15T11:16:17.486Z,82.86
2023-08-15T11:18:46.421Z,82.05
2023-08-15T11:21:15.726Z,84.26
2023-08-15T11:23:44.337Z,81.92
2023-08-15T11:26:15.413Z,79.84
2023-08-15T11:28:44.994Z,79.38
2023-08-15T11:33:46.132Z,79.24
2023-08-15T11:36:14.128Z,78.22
2023-08-15T11:38:42.052Z,78.10
2023-08-15T11:41:10.142Z,78.47
2023-08-15T11:43:38.141Z,78.73
2023-08-15T11:46:08.097Z,77.84
2023-08-15T11:48:36.802Z,78.12
2023-08-15T11:51:06.750Z,76.77
2023-08-15T11:53:34.869Z,77.78
2023-08-15T11:56:02.810Z,78.46
2023-08-15T11:58:31.570Z,78.85
2023-08-15T12:01:03.217Z,78.60
2023-08-15T12:03:33.276Z,78.74
2023-08-15T12:06:02.783Z,78.79
2023-08-15T12:08:31.728Z,79.35
2023-08-15T12:11:01.834Z,79.32
2023-08-15T12:13:33.488Z,77.54
2023-08-15T12:16:02.968Z,79.31
2023-08-15T12:18:33.352Z,80.10
2023-08-15T12:21:01.747Z,80.44
2023-08-15T12:23:29.989Z,81.78
2023-08-15T12:25:58.303Z,82.41
2023-08-15T12:28:29.439Z,83.51
2023-08-15T12:30:57.784Z,84.54
2023-08-15T12:33:40.851Z,82.85
2023-08-15T12:36:15.758Z,83.42
2023-08-15T12:38:44.355Z,84.27
2023-08-15T12:41:14.983Z,83.86
2023-08-15T12:43:43.568Z,84.51
2023-08-15T12:46:11.822Z,83.04
2023-08-15T12:48:39.993Z,84.73
2023-08-15T12:51:07.869Z,83.42
2023-08-15T12:53:37.196Z,83.01
2023-08-15T12:56:06.268Z,83.86
2023-08-15T12:58:34.295Z,83.76
2023-08-15T13:01:02.703Z,83.49
2023-08-15T13:03:31.926Z,84.72
2023-08-15T13:06:00.180Z,85.89
2023-08-15T13:08:28.205Z,85.24
2023-08-15T13:10:58.584Z,85.66
2023-08-15T13:13:26.819Z,86.01
2023-08-15T13:15:54.757Z,86.77
2023-08-15T13:18:23.013Z,87.06
2023-08-15T13:20:51.017Z,87.09
2023-08-15T13:23:18.984Z,87.83
2023-08-15T13:25:47.070Z,87.92
2023-08-15T13:28:16.333Z,87.15
2023-08-15T13:30:45.254Z,88.38
2023-08-15T13:33:13.289Z,88.70
2023-08-15T13:35:42.121Z,89.27
2023-08-15T13:38:10.777Z,89.89
2023-08-15T13:40:38.856Z,88.51
2023-08-15T13:43:07.104Z,89.91
2023-08-15T13:45:36.457Z,90.33
2023-08-15T13:48:04.875Z,90.05
2023-08-15T13:50:32.857Z,89.66
2023-08-15T13:53:00.712Z,90.10
2023-08-15T13:55:28.663Z,90.73
2023-08-15T13:57:56.624Z,90.49
2023-08-15T14:00:24.740Z,91.56
2023-08-15T14:02:54.131Z,92.84
2023-08-15T14:05:22.448Z,92.95
2023-08-15T14:07:50.343Z,92.93
2023-08-15T14:10:18.582Z,93.27
2023-08-15T14:12:46.477Z,96.20
2023-08-15T14:15:14.358Z,97.12
2023-08-15T14:17:42.373Z,99.05
2023-08-15T14:20:12.605Z,100.00
2023-08-15T14:22:40.653Z,100.00
2023-08-15T14:25:09.712Z,100.00
2023-08-15T14:27:37.699Z,100.00
2023-08-15T14:30:06.806Z,100.00
2023-08-15T14:32:34.797Z,100.00
2023-08-15T14:35:02.883Z,100.00
2023-08-15T14:37:32.347Z,100.00
2023-08-15T14:40:00.310Z,100.00
2023-08-15T14:42:28.977Z,100.00
2023-08-15T14:44:57.068Z,100.00
2023-08-15T14:47:29.435Z,100.00
2023-08-15T14:49:57.881Z,100.00
2023-08-15T14:52:27.248Z,100.00
2023-08-15T14:54:57.222Z,100.00
2023-08-15T14:57:25.564Z,100.00
2023-08-15T14:59:54.252Z,100.00
2023-08-15T15:02:24.970Z,100.00
2023-08-15T15:04:53.579Z,100.00
2023-08-15T15:07:21.473Z,100.00
2023-08-15T15:09:49.579Z,100.00
2023-08-15T15:12:19.219Z,100.00
2023-08-15T15:14:47.114Z,100.00
2023-08-15T15:17:15.006Z,100.00
2023-08-15T15:19:42.941Z,100.00
2023-08-15T15:22:10.985Z,100.00
2023-08-15T15:24:38.936Z,100.00
2023-08-15T15:27:07.194Z,100.00
2023-08-15T15:29:36.720Z,100.00
2023-08-15T15:32:05.408Z,100.00
2023-08-15T15:34:33.359Z,100.00
2023-08-15T15:37:01.252Z,100.00
2023-08-15T15:39:29.612Z,100.00
2023-08-15T15:41:57.787Z,100.00
2023-08-15T15:44:26.212Z,100.00
2023-08-15T15:46:55.886Z,100.00
2023-08-15T15:49:24.231Z,100.00
2023-08-15T15:51:52.252Z,100.00
2023-08-15T15:54:20.417Z,100.00
2023-08-15T15:56:48.355Z,100.00
2023-08-15T15:59:16.264Z,100.00
2023-08-15T16:01:44.244Z,100.00
2023-08-15T16:04:13.905Z,100.00
2023-08-15T16:06:41.933Z,100.00
2023-08-15T16:09:09.865Z,100.00
2023-08-15T16:11:37.812Z,100.00
2023-08-15T16:14:06.175Z,100.00
2023-08-15T16:16:34.192Z,100.00
2023-08-15T16:19:02.097Z,100.00
2023-08-15T16:21:32.641Z,100.00
2023-08-15T16:24:00.308Z,100.00
2023-08-15T16:26:28.357Z,100.00
2023-08-15T16:28:56.402Z,100.00
2023-08-15T16:31:26.427Z,100.00
2023-08-15T16:33:54.578Z,100.00
2023-08-15T16:36:22.477Z,100.00
2023-08-15T16:38:52.020Z,100.00
2023-08-15T16:41:20.034Z,100.00
2023-08-15T16:43:49.266Z,100.00
2023-08-15T16:46:17.609Z,100.00
2023-08-15T16:48:46.134Z,100.00
2023-08-15T16:51:14.523Z,100.00
2023-08-15T16:53:42.470Z,100.00
2023-08-15T16:56:11.907Z,100.00
2023-08-15T16:58:39.782Z,100.00
2023-08-15T17:01:07.808Z,100.00
2023-08-15T17:03:35.984Z,100.00
2023-08-15T17:06:04.144Z,100.00
2023-08-15T17:08:32.446Z,100.00
2023-08-15T17:11:00.481Z,100.00
2023-08-15T17:13:29.833Z,100.00
2023-08-15T17:15:57.724Z,100.00
2023-08-15T17:18:25.725Z,100.00
2023-08-15T17:20:54.438Z,100.00
2023-08-15T17:23:22.459Z,100.00
2023-08-15T17:25:50.441Z,100.00
2023-08-15T17:28:18.485Z,100.00
2023-08-15T17:30:47.795Z,100.00
2023-08-15T17:33:15.858Z,100.00
2023-08-15T17:35:45.354Z,100.00
2023-08-15T17:38:13.420Z,100.00
2023-08-15T17:40:41.302Z,100.00
2023-08-15T17:43:09.713Z,100.00
2023-08-15T17:45:39.672Z,100.00
2023-08-15T17:48:09.941Z,100.00
2023-08-15T17:50:37.776Z,100.00
2023-08-15T17:53:06.036Z,100.00
2023-08-15T17:55:34.043Z,100.00
2023-08-15T17:58:02.016Z,100.00
2023-08-15T18:00:30.523Z,100.00
2023-08-15T18:02:58.775Z,100.00
2023-08-15T18:05:28.463Z,100.00
2023-08-15T18:07:56.421Z,100.00
2023-08-15T18:10:24.406Z,100.00
2023-08-15T18:12:52.426Z,100.00
2023-08-15T18:15:20.481Z,100.00
2023-08-15T18:17:49.980Z,100.00
2023-08-15T18:20:18.128Z,100.00
2023-08-15T18:22:47.460Z,100.00
2023-08-15T18:25:15.813Z,100.00
2023-08-15T18:27:43.706Z,100.00
2023-08-15T18:30:12.818Z,100.00
2023-08-15T18:32:41.084Z,100.00
2023-08-15T18:35:10.090Z,100.00
2023-08-15T18:37:39.107Z,100.00
2023-08-15T18:40:10.890Z,100.00
2023-08-15T18:42:38.833Z,100.00
2023-08-15T18:45:07.716Z,100.00
2023-08-15T18:47:35.724Z,100.00
2023-08-15T18:50:03.867Z,100.00
2023-08-15T18:52:31.736Z,100.00
2023-08-15T18:54:59.948Z,100.00
2023-08-15T18:57:29.574Z,100.00
2023-08-15T18:59:57.745Z,100.00
2023-08-15T19:02:25.940Z,100.00
2023-08-15T19:04:59.155Z,100.00
2023-08-15T19:07:27.232Z,100.00
2023-08-15T19:09:55.690Z,100.00
2023-08-15T19:12:23.864Z,100.00
2023-08-15T19:14:53.933Z,100.00
2023-08-15T19:17:21.881Z,100.00
2023-08-15T19:19:52.763Z,100.00
2023-08-15T19:22:20.972Z,100.00
2023-08-15T19:24:49.198Z,100.00
2023-08-15T19:27:17.279Z,100.00
2023-08-15T19:29:45.323Z,100.00
2023-08-15T19:32:14.789Z,100.00
2023-08-15T19:34:49.227Z,100.00
2023-08-15T19:37:27.080Z,100.00
2023-08-15T19:40:03.310Z,100.00
2023-08-15T19:42:31.314Z,100.00
2023-08-15T19:44:59.331Z,100.00
2023-08-15T19:47:28.998Z,100.00
2023-08-15T19:49:56.938Z,100.00
2023-08-15T19:52:26.443Z,100.00
2023-08-15T19:54:54.732Z,100.00
2023-08-15T19:57:23.123Z,100.00
2023-08-15T19:59:51.125Z,100.00
2023-08-15T20:02:21.609Z,100.00
2023-08-15T20:04:51.709Z,100.00
2023-08-15T20:07:20.199Z,100.00
2023-08-15T20:09:59.365Z,100.00
2023-08-15T20:12:36.174Z,100.00
2023-08-15T20:15:04.247Z,100.00
2023-08-15T20:17:32.215Z,100.00
2023-08-15T20:20:02.182Z,100.00
2023-08-15T20:22:30.155Z,100.00
2023-08-15T20:24:58.551Z,100.00
2023-08-15T20:27:26.530Z,100.00
2023-08-15T20:29:57.642Z,100.00
2023-08-15T20:32:26.744Z,100.00
2023-08-15T20:34:55.118Z,100.00
2023-08-15T20:37:24.871Z,100.00
2023-08-15T20:39:52.864Z,100.00
2023-08-15T20:42:21.255Z,100.00
2023-08-15T20:44:49.605Z,100.00
2023-08-15T20:47:17.606Z,100.00
2023-08-15T20:49:45.502Z,100.00
2023-08-15T20:52:13.479Z,100.00
2023-08-15T20:54:42.791Z,100.00
2023-08-15T20:57:10.716Z,100.00
2023-08-15T20:59:38.563Z,100.00
2023-08-15T21:02:06.733Z,100.00
2023-08-15T21:04:34.756Z,100.00
2023-08-15T21:07:03.155Z,100.00
2023-08-15T21:09:31.301Z,100.00
2023-08-15T21:12:00.797Z,100.00
2023-08-15T21:14:28.806Z,100.00
2023-08-15T21:16:56.859Z,100.00
2023-08-15T21:19:24.729Z,100.00
2023-08-15T21:21:52.614Z,100.00
2023-08-15T21:24:20.656Z,100.00
2023-08-15T21:26:48.552Z,100.00
2023-08-15T21:29:17.854Z,100.00
2023-08-15T21:31:45.793Z,100.00
2023-08-15T21:34:13.937Z,100.00
2023-08-15T21:36:41.890Z,100.00
2023-08-15T21:39:09.855Z,100.00
2023-08-15T21:41:37.912Z,100.00
2023-08-15T21:44:05.994Z,100.00
2023-08-15T21:46:35.436Z,100.00
2023-08-15T21:49:03.465Z,100.00
2023-08-15T21:51:31.391Z,100.00
2023-08-15T21:53:59.294Z,100.00
2023-08-15T21:56:28.996Z,100.00
2023-08-15T21:58:59.134Z,100.00
2023-08-15T22:01:27.184Z,100.00
2023-08-15T22:03:56.626Z,100.00
2023-08-15T22:06:25.112Z,100.00
2023-08-15T22:08:53.005Z,100.00
2023-08-15T22:11:23.098Z,100.00
2023-08-15T22:13:52.151Z,100.00
2023-08-15T22:16:20.228Z,100.00
2023-08-15T22:18:48.172Z,100.00
2023-08-15T22:21:17.568Z,100.00
2023-08-15T22:23:46.548Z,100.00
2023-08-15T22:26:14.759Z,100.00
2023-08-15T22:28:43.115Z,100.00
2023-08-15T22:31:11.156Z,100.00
2023-08-15T22:33:39.196Z,100.00
2023-08-15T22:36:07.216Z,100.00
2023-08-15T22:38:36.767Z,100.00
2023-08-15T22:41:04.697Z,100.00
2023-08-15T22:43:32.656Z,100.00
2023-08-15T22:46:00.733Z,100.00
2023-08-15T22:48:28.678Z,100.00
2023-08-15T22:50:56.560Z,100.00
2023-08-15T22:53:24.615Z,100.00
2023-08-15T22:55:58.945Z,100.00
2023-08-15T22:58:26.859Z,100.00
2023-08-15T23:00:56.610Z,100.00
2023-08-15T23:03:25.821Z,100.00
2023-08-15T23:05:53.684Z,100.00
2023-08-15T23:08:21.681Z,100.00
2023-08-15T23:10:54.827Z,100.00
2023-08-15T23:13:23.123Z,100.00
2023-08-15T23:15:51.308Z,100.00
2023-08-15T23:18:19.396Z,100.00
2023-08-15T23:20:47.328Z,100.00
2023-08-15T23:23:15.902Z,100.00
2023-08-15T23:25:43.773Z,100.00
2023-08-15T23:28:13.296Z,100.00
2023-08-15T23:30:41.260Z,100.00
2023-08-15T23:33:09.622Z,100.00
2023-08-15T23:35:37.603Z,100.00
2023-08-15T23:38:05.876Z,100.00
2023-08-15T23:40:34.109Z,100.00
2023-08-15T23:43:02.065Z,100.00
2023-08-15T23:45:32.966Z,100.00
2023-08-15T23:48:00.966Z,100.00
2023-08-15T23:50:29.595Z,100.00
2023-08-15T23:52:57.982Z,100.00
2023-08-15T23:55:25.891Z,100.00
2023-08-15T23:57:54.159Z,100.00
